Fire Weather Observation
Issued by NWS Grand Junction, CO

Home | Current Version | Previous Version | Text Only | Print | Product List | Glossary Off
Versions: 1 2 3 4 5 6 7 8 9 10 11 12 13 14 15 16 17 18 19 20 21 22 23 24 25 26 27 28 29 30 31 32 33 34 35 36 37 38 39 40 41 42 43 44 45 46 47 48 49 50

000
SHUS65 KGJT 142016
FWOGJT

DAILY FIRE WEATHER OBSERVATION
NATIONAL WEATHER SERVICE GRAND JUNCTION CO
216 PM MDT SUN SEP 14 2014

STATE OF THE WEATHER (W)               1
DRY BULB TEMPERATURE                   82   DEGREES FAHRENHEIT
RELATIVE HUMIDITY (RH)                 22   PERCENT
LIGHTNING ACTIVITY LEVEL
  (LAL - MIDNIGHT TO 2 PM)             1
WIND DIRECTION                         270  DEGREES (C IF CALM)
WIND SPEED                             7    MPH
MAX TEMP (2 PM - 2 PM)                 82   DEGREES FAHRENHEIT
MIN TEMP (2 PM - 2 PM)                 50   DEGREES FAHRENHEIT
MAX RH (2 PM - 2 PM)                   58   PERCENT
MIN RH (2 PM - 2 PM)                   19   PERCENT
PCPN DURATION                          0.0  HOURS
PCPN AMT (2 PM - 2 PM)                 0.0  INCHES
LAL (2 PM - 2 PM)                      1

$$

METAR KGJT 141953Z 26006KT 10SM CLR 28/04 A3009 RMK AO2 SLP127
      T02780039


USA.gov is the U.S. government's official web portal to all federal, state and local government web resources and services.